Time;durP1;ratioP1;P1;durP2;ratioP2;P2;SDS_P1;SDS_P2;PMS_P1;PMS_P2;Temp;Humidity;BMP_temperature;BMP_pressure;BME280_temperature;BME280_humidity;BME280_pressure;Samples;Min_cycle;Max_cycle;Signal;HPM_P1;HPM_P2
2022/08/09 00:00:17;;;;;;;6.72;2.42;;;15.20;87.50;;;;;;5052706;28;20035;-44
2022/08/09 00:02:43;;;;;;;5.03;2.22;;;15.30;87.50;;;;;;5086839;28;20031;-43
2022/08/09 00:05:09;;;;;;;2.50;1.70;;;15.20;87.30;;;;;;5064292;28;20037;-48
2022/08/09 00:07:34;;;;;;;4.95;2.10;;;15.20;87.30;;;;;;5061136;28;20089;-45
2022/08/09 00:10:00;;;;;;;4.35;1.98;;;15.10;87.30;;;;;;5074201;28;20051;-44
2022/08/09 00:12:26;;;;;;;4.18;2.28;;;15.00;87.20;;;;;;5057285;28;20023;-45
2022/08/09 00:14:52;;;;;;;4.20;1.98;;;15.00;87.30;;;;;;5108598;28;20517;-43
2022/08/09 00:17:17;;;;;;;3.67;1.88;;;15.00;87.30;;;;;;5072620;28;20495;-44
2022/08/09 00:19:43;;;;;;;3.08;1.80;;;14.90;87.40;;;;;;5086671;28;20028;-44
2022/08/09 00:22:13;;;;;;;6.55;3.33;;;14.90;87.40;;;;;;5062396;28;20059;-46
2022/08/09 00:24:39;;;;;;;4.22;1.85;;;14.90;87.30;;;;;;5062311;28;20089;-44
2022/08/09 00:27:05;;;;;;;4.20;1.85;;;14.90;87.30;;;;;;5086152;28;20036;-45
2022/08/09 00:29:31;;;;;;;3.50;1.70;;;14.90;87.20;;;;;;5073348;28;20437;-45
2022/08/09 00:31:59;;;;;;;3.13;1.70;;;14.80;86.90;;;;;;5086887;28;20038;-48
2022/08/09 00:34:25;;;;;;;4.82;1.65;;;14.80;87.10;;;;;;5091314;28;20028;-45
2022/08/09 00:36:53;;;;;;;5.95;2.40;;;14.80;86.90;;;;;;5089896;28;20031;-47
2022/08/09 00:39:19;;;;;;;3.25;1.70;;;14.70;87.20;;;;;;5071307;28;20119;-44
2022/08/09 00:41:45;;;;;;;3.95;1.92;;;14.60;87.20;;;;;;5071194;28;20482;-46
2022/08/09 00:44:10;;;;;;;3.97;2.00;;;14.60;87.30;;;;;;5060520;28;20037;-47
2022/08/09 00:46:36;;;;;;;3.55;2.00;;;14.50;87.20;;;;;;5063032;28;20039;-43
2022/08/09 00:49:02;;;;;;;6.20;2.33;;;14.40;87.30;;;;;;5063433;28;20166;-45
2022/08/09 00:51:28;;;;;;;4.13;1.83;;;14.40;87.60;;;;;;5061766;28;20032;-44
2022/08/09 00:53:54;;;;;;;4.80;1.90;;;14.40;87.60;;;;;;5064957;28;20022;-45
2022/08/09 00:56:20;;;;;;;4.55;2.03;;;14.40;87.60;;;;;;5084935;28;20126;-49
2022/08/09 00:58:45;;;;;;;5.15;2.00;;;14.40;87.40;;;;;;5090266;28;20031;-43
2022/08/09 01:01:18;;;;;;;5.63;2.00;;;14.30;87.30;;;;;;5066885;28;20029;-45
2022/08/09 01:04:06;;;;;;;5.07;2.40;;;14.20;87.50;;;;;;5050082;28;20107;-43
2022/08/09 01:06:39;;;;;;;5.88;3.05;;;14.30;87.60;;;;;;5051849;28;20825;-44
2022/08/09 01:09:19;;;;;;;4.72;2.03;;;14.20;87.60;;;;;;5051574;28;20074;-44
2022/08/09 01:11:45;;;;;;;;;;;14.20;87.60;;;;;;5081817;28;20841;-44
2022/08/09 01:14:27;;;;;;;3.80;2.13;;;14.10;87.60;;;;;;5081483;28;19983;-44
2022/08/09 01:17:01;;;;;;;3.58;1.80;;;14.10;87.60;;;;;;5070826;28;20032;-44
2022/08/09 01:19:38;;;;;;;3.13;2.00;;;14.10;87.50;;;;;;5050167;28;20117;-45
2022/08/09 01:22:19;;;;;;;4.85;2.38;;;14.10;87.50;;;;;;5073093;28;20021;-45
2022/08/09 01:25:10;;;;;;;6.18;2.60;;;14.10;87.60;;;;;;5050486;28;20047;-44
2022/08/09 01:27:41;;;;;;;4.68;2.50;;;14.00;87.60;;;;;;5050864;28;20446;-47
2022/08/09 01:30:11;;;;;;;3.95;2.00;;;13.90;87.70;;;;;;5050629;28;20528;-44
2022/08/09 01:32:42;;;;;;;4.43;1.90;;;14.00;87.80;;;;;;5068753;28;20031;-45
2022/08/09 01:35:22;;;;;;;4.25;2.13;;;14.00;87.70;;;;;;5068551;28;20029;-45
2022/08/09 01:37:50;;;;;;;;;;;14.00;87.60;;;;;;5067699;28;20025;-43
2022/08/09 01:40:19;;;;;;;3.90;1.80;;;14.00;87.60;;;;;;5069280;28;19912;-45
2022/08/09 01:42:47;;;;;;;4.80;1.87;;;13.90;87.50;;;;;;5072164;28;20033;-45
2022/08/09 01:45:14;;;;;;;4.32;2.33;;;14.00;87.50;;;;;;5070033;28;20049;-45
2022/08/09 01:47:44;;;;;;;5.63;2.53;;;14.00;87.60;;;;;;5052799;28;20116;-43
2022/08/09 01:50:13;;;;;;;3.85;2.22;;;13.90;87.50;;;;;;5074342;28;20028;-44
2022/08/09 01:52:44;;;;;;;4.77;1.93;;;14.00;87.50;;;;;;5067742;28;20044;-44
2022/08/09 01:55:11;;;;;;;3.65;1.92;;;13.90;87.40;;;;;;5063185;28;20308;-44
2022/08/09 01:57:41;;;;;;;3.88;2.28;;;13.90;87.60;;;;;;5069678;28;20579;-43
2022/08/09 02:00:08;;;;;;;3.92;2.72;;;13.80;87.60;;;;;;5086512;28;20032;-43
2022/08/09 02:02:41;;;;;;;5.15;3.88;;;13.80;87.80;;;;;;5070011;28;20103;-46
2022/08/09 02:05:10;;;;;;;4.93;2.65;;;13.80;87.70;;;;;;5070625;28;20025;-44
2022/08/09 02:07:44;;;;;;;5.43;3.33;;;13.80;87.80;;;;;;5072092;28;20024;-44
2022/08/09 02:10:19;;;;;;;3.60;2.58;;;13.70;87.80;;;;;;5061505;28;20600;-46
2022/08/09 02:12:46;;;;;;;4.60;3.08;;;13.70;87.80;;;;;;5088850;28;20462;-45
2022/08/09 02:15:16;;;;;;;3.92;2.45;;;13.70;87.80;;;;;;5073833;28;20028;-44
2022/08/09 02:17:44;;;;;;;5.20;2.88;;;13.70;87.80;;;;;;5069739;28;20362;-44
2022/08/09 02:20:10;;;;;;;4.50;3.08;;;13.60;87.70;;;;;;5053611;28;20123;-46
2022/08/09 02:22:47;;;;;;;5.55;2.90;;;13.60;87.70;;;;;;5069966;28;20025;-45
2022/08/09 02:25:22;;;;;;;4.03;2.70;;;13.60;87.80;;;;;;5077659;28;20033;-45
2022/08/09 02:27:56;;;;;;;4.13;2.78;;;13.60;87.90;;;;;;5053184;28;20466;-43
2022/08/09 02:30:23;;;;;;;5.00;2.70;;;13.60;87.80;;;;;;5072625;28;20032;-44
2022/08/09 02:32:50;;;;;;;4.85;3.03;;;13.50;87.60;;;;;;5052757;28;20060;-44
2022/08/09 02:35:24;;;;;;;6.68;2.60;;;13.50;87.80;;;;;;5069090;28;20035;-44
2022/08/09 02:37:57;;;;;;;3.47;2.63;;;13.50;87.80;;;;;;5071998;28;20032;-46
2022/08/09 02:40:24;;;;;;;4.43;2.28;;;13.50;87.70;;;;;;5085398;28;20052;-44
2022/08/09 02:42:53;;;;;;;5.05;3.17;;;13.50;87.70;;;;;;5068459;28;20059;-42
2022/08/09 02:45:39;;;;;;;6.20;2.90;;;13.50;87.70;;;;;;5072776;28;20483;-44
2022/08/09 02:48:14;;;;;;;4.15;2.80;;;13.50;87.90;;;;;;5051822;28;20036;-43
2022/08/09 02:50:49;;;;;;;3.63;2.63;;;13.40;88.00;;;;;;5068065;28;20024;-43
2022/08/09 02:53:25;;;;;;;5.75;2.85;;;13.40;88.10;;;;;;5063490;28;20032;-44
2022/08/09 02:55:56;;;;;;;4.70;2.78;;;13.40;88.00;;;;;;5055461;28;20034;-45
2022/08/09 02:58:25;;;;;;;6.63;3.50;;;13.50;88.10;;;;;;5069021;28;20028;-44
2022/08/09 03:00:52;;;;;;;4.45;3.05;;;13.40;88.00;;;;;;5072144;28;20523;-44
2022/08/09 03:03:18;;;;;;;8.32;2.67;;;13.50;88.10;;;;;;5068523;28;20024;-44
2022/08/09 03:05:45;;;;;;;4.38;3.10;;;13.50;88.20;;;;;;5063310;28;20060;-43
2022/08/09 03:08:13;;;;;;;5.00;2.92;;;13.50;88.30;;;;;;5051056;28;20467;-43
2022/08/09 03:10:39;;;;;;;4.65;2.88;;;13.50;88.20;;;;;;5076453;28;20020;-45
2022/08/09 03:13:06;;;;;;;4.97;2.70;;;13.50;88.40;;;;;;5088768;28;20035;-44
2022/08/09 03:15:36;;;;;;;4.32;2.88;;;13.50;88.30;;;;;;5072585;28;20038;-45
2022/08/09 03:18:03;;;;;;;5.10;3.20;;;13.40;88.20;;;;;;5051583;28;20666;-44
2022/08/09 03:20:30;;;;;;;6.00;3.40;;;13.50;88.20;;;;;;5070929;28;20028;-43
2022/08/09 03:22:57;;;;;;;5.97;3.45;;;13.40;88.30;;;;;;5068879;28;20020;-43
2022/08/09 03:25:22;;;;;;;5.32;3.75;;;13.40;88.20;;;;;;5069693;28;20032;-43
2022/08/09 03:27:50;;;;;;;5.85;2.83;;;13.40;88.40;;;;;;5052235;28;20039;-45
2022/08/09 03:30:17;;;;;;;5.85;2.95;;;13.30;88.40;;;;;;5073125;28;20032;-43
2022/08/09 03:32:43;;;;;;;3.92;2.90;;;13.30;88.40;;;;;;5071190;28;20028;-43
2022/08/09 03:35:10;;;;;;;4.13;2.83;;;13.30;88.40;;;;;;5069381;28;20032;-43
2022/08/09 03:37:38;;;;;;;6.40;3.17;;;13.30;88.30;;;;;;5087253;28;20029;-43
2022/08/09 03:40:04;;;;;;;4.30;2.53;;;13.30;88.40;;;;;;5084382;28;20040;-44
2022/08/09 03:42:30;;;;;;;4.95;3.30;;;13.30;88.40;;;;;;5073296;28;20063;-43
2022/08/09 03:44:55;;;;;;;3.58;2.83;;;13.20;88.10;;;;;;5060295;28;20076;-44
2022/08/09 03:47:21;;;;;;;5.57;3.58;;;13.30;88.30;;;;;;5085914;28;20030;-43
2022/08/09 03:49:51;;;;;;;5.68;2.95;;;13.30;88.30;;;;;;5055615;28;20429;-45
2022/08/09 03:52:18;;;;;;;4.00;3.20;;;13.30;88.30;;;;;;5068745;28;20506;-44
2022/08/09 03:54:46;;;;;;;5.00;3.05;;;13.30;88.30;;;;;;5071573;28;20050;-43
2022/08/09 03:57:14;;;;;;;4.60;2.95;;;13.30;88.30;;;;;;5073398;28;20024;-44
2022/08/09 03:59:46;;;;;;;5.15;3.22;;;13.30;88.30;;;;;;5072344;28;20028;-43
2022/08/09 04:02:11;;;;;;;4.53;2.95;;;13.30;88.10;;;;;;5089511;28;20441;-44
2022/08/09 04:04:37;;;;;;;5.03;2.72;;;13.30;88.20;;;;;;5091053;28;20024;-44
2022/08/09 04:07:04;;;;;;;4.07;2.92;;;13.30;88.20;;;;;;5090035;28;20028;-42
2022/08/09 04:09:30;;;;;;;4.50;2.63;;;13.20;88.20;;;;;;5083605;28;20052;-43
2022/08/09 04:11:58;;;;;;;4.75;2.67;;;13.20;88.20;;;;;;5075889;28;20107;-43
2022/08/09 04:14:24;;;;;;;3.75;2.53;;;13.30;88.20;;;;;;5084181;28;20020;-43
2022/08/09 04:16:50;;;;;;;5.32;2.88;;;13.20;88.30;;;;;;5054311;28;20462;-44
2022/08/09 04:19:18;;;;;;;4.75;3.58;;;13.30;88.30;;;;;;5081232;28;20036;-44
2022/08/09 04:21:44;;;;;;;6.05;2.78;;;13.30;88.40;;;;;;5076998;28;20468;-44
2022/08/09 04:24:09;;;;;;;6.75;2.28;;;13.30;88.50;;;;;;5082497;28;20453;-43
2022/08/09 04:26:35;;;;;;;3.85;1.90;;;13.40;88.60;;;;;;5085779;28;20043;-43
2022/08/09 04:29:01;;;;;;;5.13;2.13;;;13.40;88.80;;;;;;5077820;28;20091;-43
2022/08/09 04:31:26;;;;;;;3.78;2.45;;;13.40;88.90;;;;;;5090729;28;20020;-44
2022/08/09 04:33:52;;;;;;;4.25;2.35;;;13.50;88.90;;;;;;5071632;28;20357;-44
2022/08/09 04:36:18;;;;;;;4.40;2.33;;;13.50;89.00;;;;;;5058694;28;20457;-44
2022/08/09 04:38:43;;;;;;;4.40;2.00;;;13.50;88.90;;;;;;5073419;28;20331;-44
2022/08/09 04:41:09;;;;;;;4.45;2.88;;;13.60;89.00;;;;;;5090979;28;20457;-44
2022/08/09 04:43:35;;;;;;;3.90;2.25;;;13.60;88.90;;;;;;5082881;28;20040;-43
2022/08/09 04:46:00;;;;;;;4.95;2.22;;;13.70;88.90;;;;;;5078634;28;20114;-43
2022/08/09 04:48:26;;;;;;;3.33;2.35;;;13.70;89.00;;;;;;5091558;28;20054;-43
2022/08/09 04:50:52;;;;;;;2.78;1.65;;;13.70;89.00;;;;;;5083980;28;20524;-44
2022/08/09 04:53:18;;;;;;;4.13;2.92;;;13.70;89.00;;;;;;5072281;28;20025;-43
2022/08/09 04:55:43;;;;;;;4.93;2.55;;;13.80;89.00;;;;;;5077033;28;20164;-45
2022/08/09 04:58:11;;;;;;;4.00;2.70;;;13.80;89.10;;;;;;5093873;28;20023;-43
2022/08/09 05:00:40;;;;;;;5.15;3.17;;;13.90;89.30;;;;;;5093050;28;20032;-44
2022/08/09 05:03:10;;;;;;;3.65;2.50;;;13.90;89.50;;;;;;5091666;28;20390;-44
2022/08/09 05:05:36;;;;;;;3.08;2.30;;;14.00;89.60;;;;;;5104611;28;20042;-44
2022/08/09 05:08:04;;;;;;;3.72;2.28;;;14.20;89.60;;;;;;5090470;28;20737;-44
2022/08/09 05:10:29;;;;;;;4.55;2.17;;;14.30;89.70;;;;;;5074223;28;20064;-44
2022/08/09 05:12:55;;;;;;;5.05;2.67;;;14.40;89.70;;;;;;5073249;28;20447;-43
2022/08/09 05:15:21;;;;;;;5.22;2.85;;;14.40;89.70;;;;;;5083273;28;20150;-44
2022/08/09 05:17:46;;;;;;;7.43;3.22;;;14.60;89.70;;;;;;5070845;28;20032;-44
2022/08/09 05:20:14;;;;;;;3.90;2.60;;;14.70;89.70;;;;;;5071920;28;20040;-44
2022/08/09 05:22:40;;;;;;;2.83;2.08;;;14.90;89.80;;;;;;5053066;28;20028;-44
2022/08/09 05:25:06;;;;;;;4.03;2.53;;;15.00;89.80;;;;;;5071970;28;20357;-44
2022/08/09 05:27:32;;;;;;;5.05;2.80;;;15.20;89.80;;;;;;5053161;28;20037;-43
2022/08/09 05:29:57;;;;;;;5.93;3.00;;;15.40;89.80;;;;;;5077125;28;20057;-43
2022/08/09 05:32:25;;;;;;;5.13;2.35;;;15.50;89.80;;;;;;5071833;28;20044;-44
2022/08/09 05:34:51;;;;;;;4.00;2.67;;;15.70;90.00;;;;;;5072757;28;20017;-44
2022/08/09 05:37:19;;;;;;;4.60;2.50;;;15.90;89.90;;;;;;5052831;28;20045;-44
2022/08/09 05:39:45;;;;;;;4.18;2.63;;;16.00;89.60;;;;;;5079552;28;20221;-44
2022/08/09 05:42:14;;;;;;;4.47;2.78;;;16.10;89.30;;;;;;5043481;28;20163;-46
2022/08/09 05:44:40;;;;;;;3.80;2.63;;;16.30;88.90;;;;;;5073401;28;20039;-44
2022/08/09 05:47:05;;;;;;;4.75;2.03;;;16.30;88.40;;;;;;5057115;28;20028;-44
2022/08/09 05:49:31;;;;;;;3.75;2.00;;;16.40;88.20;;;;;;5081961;28;20344;-44
2022/08/09 05:51:57;;;;;;;5.32;2.60;;;16.50;87.90;;;;;;5089373;28;20012;-45
2022/08/09 05:54:23;;;;;;;3.28;2.00;;;16.70;88.00;;;;;;5089380;28;20349;-45
2022/08/09 05:56:48;;;;;;;5.55;2.17;;;16.80;87.20;;;;;;5088262;28;20035;-45
2022/08/09 05:59:14;;;;;;;2.97;1.77;;;16.70;86.20;;;;;;5089960;28;20455;-44
2022/08/09 06:01:41;;;;;;;4.00;1.98;;;16.70;86.10;;;;;;5067659;28;20058;-44
2022/08/09 06:04:07;;;;;;;6.55;2.10;;;16.70;85.60;;;;;;5087009;28;20020;-45
2022/08/09 06:06:33;;;;;;;3.78;1.80;;;16.70;85.60;;;;;;5067968;28;20040;-44
2022/08/09 06:08:58;;;;;;;20.33;4.57;;;16.70;85.70;;;;;;5089629;28;20500;-45
2022/08/09 06:11:26;;;;;;;6.95;2.22;;;16.60;85.60;;;;;;5087610;28;20051;-45
2022/08/09 06:13:52;;;;;;;7.78;1.70;;;16.70;85.60;;;;;;5069592;28;20414;-45
2022/08/09 06:16:17;;;;;;;6.22;1.75;;;16.70;85.40;;;;;;5072251;28;20107;-45
2022/08/09 06:18:43;;;;;;;3.75;1.30;;;16.80;84.60;;;;;;5080226;28;20049;-46
2022/08/09 06:21:09;;;;;;;5.30;1.90;;;16.80;83.90;;;;;;5077756;28;20032;-46
2022/08/09 06:23:37;;;;;;;6.40;2.10;;;16.80;83.80;;;;;;5064536;28;20031;-45
2022/08/09 06:26:02;;;;;;;4.00;1.88;;;16.90;83.40;;;;;;5084508;28;20032;-45
2022/08/09 06:28:30;;;;;;;7.20;1.65;;;17.00;82.70;;;;;;5089126;28;20031;-47
2022/08/09 06:30:56;;;;;;;4.53;1.23;;;17.10;82.50;;;;;;5063267;28;20022;-49
2022/08/09 06:33:21;;;;;;;4.70;1.63;;;17.10;82.20;;;;;;5066248;28;20480;-47
2022/08/09 06:35:47;;;;;;;7.60;1.60;;;17.20;80.80;;;;;;5079366;28;20028;-47
2022/08/09 06:38:12;;;;;;;5.97;1.70;;;17.30;81.60;;;;;;5059257;28;20039;-45
2022/08/09 06:40:38;;;;;;;4.75;1.48;;;17.30;81.50;;;;;;5086104;28;20043;-45
2022/08/09 06:43:04;;;;;;;2.08;1.10;;;17.40;81.40;;;;;;5085063;28;20059;-46
2022/08/09 06:45:32;;;;;;;2.40;1.30;;;17.40;80.60;;;;;;5082567;28;20032;-45
2022/08/09 06:48:01;;;;;;;2.27;1.50;;;17.50;81.10;;;;;;5078304;28;20700;-45
2022/08/09 06:50:26;;;;;;;5.55;1.67;;;17.50;79.10;;;;;;5081788;28;20349;-45
2022/08/09 06:52:52;;;;;;;8.57;1.40;;;17.60;79.60;;;;;;5068946;28;20111;-45
2022/08/09 06:55:19;;;;;;;6.63;1.98;;;17.60;79.30;;;;;;5055629;28;20115;-45
2022/08/09 06:57:45;;;;;;;4.45;2.08;;;17.70;80.70;;;;;;5086161;28;20031;-46
2022/08/09 07:00:12;;;;;;;4.22;1.70;;;17.80;79.80;;;;;;5061045;28;20040;-47
2022/08/09 07:02:38;;;;;;;6.47;1.50;;;17.90;79.10;;;;;;5081761;28;20051;-46
2022/08/09 07:05:10;;;;;;;3.63;1.05;;;17.90;79.40;;;;;;5065669;28;20089;-44
2022/08/09 07:07:38;;;;;;;2.42;1.20;;;17.90;78.80;;;;;;5068973;28;20028;-46
2022/08/09 07:10:04;;;;;;;2.78;1.33;;;18.00;79.00;;;;;;5080298;28;20572;-46
2022/08/09 07:12:32;;;;;;;5.28;1.35;;;18.10;79.40;;;;;;5085246;28;20032;-45
2022/08/09 07:14:57;;;;;;;3.85;1.52;;;18.40;80.40;;;;;;5065023;28;20692;-46
2022/08/09 07:17:25;;;;;;;4.65;1.50;;;18.50;80.10;;;;;;5083349;28;20119;-47
2022/08/09 07:19:51;;;;;;;2.83;1.20;;;18.50;80.20;;;;;;5081297;28;20098;-47
2022/08/09 07:22:17;;;;;;;5.57;1.63;;;18.50;78.30;;;;;;5085986;28;20112;-46
2022/08/09 07:24:43;;;;;;;3.50;1.55;;;18.40;78.70;;;;;;5087197;28;20089;-47
2022/08/09 07:27:10;;;;;;;3.22;1.67;;;18.40;78.40;;;;;;5088676;28;20490;-46
2022/08/09 07:29:36;;;;;;;3.88;1.27;;;18.50;77.90;;;;;;5088576;28;20531;-46
2022/08/09 07:32:02;;;;;;;2.22;1.13;;;18.40;77.10;;;;;;5070652;28;20107;-46
2022/08/09 07:34:31;;;;;;;9.35;2.42;;;18.30;76.80;;;;;;5089834;28;20349;-46
2022/08/09 07:36:56;;;;;;;5.28;1.50;;;18.40;77.00;;;;;;5089891;28;20032;-46
2022/08/09 07:39:22;;;;;;;8.77;1.42;;;18.70;77.20;;;;;;5074139;28;20043;-50
2022/08/09 07:41:48;;;;;;;6.13;1.70;;;18.90;75.50;;;;;;5073336;28;20032;-46
2022/08/09 07:44:13;;;;;;;4.45;1.33;;;19.20;75.40;;;;;;5089955;28;20043;-46
2022/08/09 07:46:39;;;;;;;3.42;1.40;;;19.50;74.70;;;;;;5061087;28;20037;-47
2022/08/09 07:49:05;;;;;;;4.60;1.35;;;19.80;73.20;;;;;;5088830;28;20039;-49
2022/08/09 07:51:33;;;;;;;2.95;1.30;;;19.90;73.30;;;;;;5076423;28;20032;-47
2022/08/09 07:54:01;;;;;;;3.70;1.73;;;20.10;72.90;;;;;;5066699;28;20038;-47
2022/08/09 07:56:29;;;;;;;4.85;1.40;;;20.40;71.70;;;;;;5091995;28;20350;-47
2022/08/09 07:58:55;;;;;;;2.70;1.30;;;20.80;70.70;;;;;;5054218;28;20531;-48
2022/08/09 08:01:23;;;;;;;4.22;1.48;;;20.90;68.80;;;;;;5086932;28;20111;-49
2022/08/09 08:03:49;;;;;;;2.88;1.17;;;21.00;69.70;;;;;;5091616;28;20447;-48
2022/08/09 08:06:15;;;;;;;1.63;1.02;;;21.40;67.50;;;;;;5087424;28;20032;-48
2022/08/09 08:08:40;;;;;;;3.83;1.20;;;21.40;66.60;;;;;;5091144;28;20032;-47
2022/08/09 08:11:06;;;;;;;3.35;1.27;;;21.50;66.40;;;;;;5071218;28;20089;-47
2022/08/09 08:13:32;;;;;;;6.10;1.80;;;21.70;67.10;;;;;;5090797;28;20025;-47
2022/08/09 08:15:57;;;;;;;3.72;1.52;;;21.90;68.50;;;;;;5080743;28;20032;-47
2022/08/09 08:18:23;;;;;;;3.85;1.30;;;22.20;66.30;;;;;;5082639;28;20129;-48
2022/08/09 08:20:48;;;;;;;5.28;1.30;;;22.50;64.90;;;;;;5075990;28;20089;-47
2022/08/09 08:23:16;;;;;;;5.82;1.50;;;22.70;65.50;;;;;;5076794;28;20028;-49
2022/08/09 08:25:42;;;;;;;3.35;1.48;;;22.70;63.70;;;;;;5090368;28;20531;-47
2022/08/09 08:28:08;;;;;;;3.28;1.10;;;22.60;62.10;;;;;;5091429;28;20028;-47
2022/08/09 08:30:33;;;;;;;2.78;1.52;;;22.80;62.90;;;;;;5082259;28;20031;-49
2022/08/09 08:32:59;;;;;;;5.63;1.30;;;22.70;63.20;;;;;;5071668;28;20025;-47
2022/08/09 08:35:27;;;;;;;2.50;1.38;;;22.70;64.20;;;;;;5072414;28;20089;-48
2022/08/09 08:37:55;;;;;;;9.95;1.85;;;22.60;64.10;;;;;;5056290;28;20032;-48
2022/08/09 08:40:21;;;;;;;3.78;1.58;;;22.90;62.80;;;;;;5072021;28;20369;-51
2022/08/09 08:42:46;;;;;;;9.00;1.75;;;23.00;62.50;;;;;;5085473;28;20052;-47
2022/08/09 08:45:15;;;;;;;7.22;1.70;;;22.70;62.60;;;;;;5084106;28;20501;-51
2022/08/09 08:47:44;;;;;;;3.70;1.30;;;22.90;63.50;;;;;;5091108;28;20027;-47
2022/08/09 08:50:14;;;;;;;5.47;2.00;;;22.80;62.40;;;;;;5080940;28;20025;-48
2022/08/09 08:52:45;;;;;;;5.82;1.92;;;22.90;62.50;;;;;;5070481;28;20356;-48
2022/08/09 08:55:12;;;;;;;6.95;1.70;;;22.90;63.70;;;;;;5086839;28;20028;-49
2022/08/09 08:57:40;;;;;;;3.78;1.40;;;22.80;63.40;;;;;;5090609;28;20460;-47
2022/08/09 09:00:09;;;;;;;3.40;1.80;;;22.90;62.30;;;;;;5089743;28;20088;-50
2022/08/09 09:02:35;;;;;;;7.40;1.67;;;22.90;60.30;;;;;;5084473;28;20032;-48
2022/08/09 09:05:00;;;;;;;6.18;1.70;;;22.90;60.40;;;;;;5070536;28;20166;-47
2022/08/09 09:07:29;;;;;;;3.40;1.48;;;23.00;62.00;;;;;;5075002;28;20020;-48
2022/08/09 09:09:58;;;;;;;4.32;1.33;;;23.30;63.70;;;;;;5053961;28;20028;-47
2022/08/09 09:12:26;;;;;;;2.47;1.20;;;23.10;60.40;;;;;;5070254;28;20455;-47
2022/08/09 09:14:52;;;;;;;3.15;1.27;;;22.90;62.50;;;;;;5052939;28;20147;-48
2022/08/09 09:17:20;;;;;;;2.97;1.35;;;23.20;64.10;;;;;;5053929;28;20440;-48
2022/08/09 09:19:49;;;;;;;3.92;1.38;;;23.30;64.60;;;;;;5071238;28;20360;-52
2022/08/09 09:22:18;;;;;;;3.00;1.13;;;23.40;64.60;;;;;;5087595;28;20039;-49
2022/08/09 09:24:53;;;;;;;3.87;1.63;;;23.40;61.80;;;;;;5074844;28;20041;-47
2022/08/09 09:27:25;;;;;;;3.45;1.48;;;23.20;63.50;;;;;;5070044;28;20024;-51
2022/08/09 09:29:53;;;;;;;2.92;1.20;;;23.50;65.80;;;;;;5078057;28;20035;-48
2022/08/09 09:32:26;;;;;;;2.78;1.33;;;23.40;63.90;;;;;;5056405;28;20025;-47
2022/08/09 09:35:09;;;;;;;3.83;1.50;;;23.30;62.60;;;;;;5071033;28;20104;-48
2022/08/09 09:37:37;;;;;;;4.47;1.30;;;23.30;64.70;;;;;;5089314;28;20032;-50
2022/08/09 09:40:03;;;;;;;2.17;1.00;;;23.20;64.00;;;;;;5056330;28;20033;-48
2022/08/09 09:42:30;;;;;;;4.75;1.17;;;23.30;61.80;;;;;;5054770;28;20045;-49
2022/08/09 09:45:01;;;;;;;8.27;1.30;;;23.30;61.20;;;;;;5074959;28;20299;-48
2022/08/09 09:47:28;;;;;;;2.78;1.20;;;23.30;59.90;;;;;;5077993;28;20556;-48
2022/08/09 09:49:56;;;;;;;2.35;0.98;;;23.40;63.00;;;;;;5070890;28;20491;-48
2022/08/09 09:52:22;;;;;;;2.75;1.50;;;23.30;63.90;;;;;;5073903;28;20028;-48
2022/08/09 09:54:51;;;;;;;4.35;1.40;;;23.40;62.00;;;;;;5075751;28;20331;-52
2022/08/09 09:57:19;;;;;;;4.22;1.20;;;23.40;61.80;;;;;;5085458;28;20081;-48
2022/08/09 09:59:46;;;;;;;4.53;1.02;;;23.40;62.30;;;;;;5070109;28;20580;-47
2022/08/09 10:02:13;;;;;;;4.82;1.20;;;23.30;61.70;;;;;;5089505;28;20096;-49
2022/08/09 10:04:40;;;;;;;5.25;1.10;;;23.40;63.30;;;;;;5069186;28;20028;-48
2022/08/09 10:07:20;;;;;;;3.10;1.55;;;23.60;63.60;;;;;;5071047;28;20392;-51
2022/08/09 10:09:48;;;;;;;2.28;1.35;;;23.50;60.70;;;;;;5080710;28;20035;-48
2022/08/09 10:12:29;;;;;;;4.95;1.27;;;23.40;63.20;;;;;;5089449;28;20457;-49
2022/08/09 10:15:10;;;;;;;3.45;1.42;;;23.40;64.00;;;;;;5074968;28;20111;-50
2022/08/09 10:17:37;;;;;;;3.38;1.10;;;23.10;60.80;;;;;;5083891;28;20078;-53
2022/08/09 10:20:21;;;;;;;2.65;1.27;;;23.40;62.10;;;;;;5070173;28;20060;-48
2022/08/09 10:22:49;;;;;;;3.25;1.10;;;23.30;61.20;;;;;;5068978;28;20093;-50
2022/08/09 10:25:15;;;;;;;4.55;1.50;;;23.00;61.70;;;;;;5069632;28;20029;-53
2022/08/09 10:27:45;;;;;;;4.00;1.60;;;23.10;63.00;;;;;;5068790;28;20044;-48
2022/08/09 10:30:11;;;;;;;3.50;1.40;;;23.10;61.50;;;;;;5052715;28;20036;-49
2022/08/09 10:32:41;;;;;;;6.20;1.25;;;23.40;62.00;;;;;;5075816;28;20025;-52
2022/08/09 10:35:08;;;;;;;2.17;1.08;;;23.70;62.00;;;;;;5068950;28;20396;-53
2022/08/09 10:37:34;;;;;;;2.30;1.15;;;23.70;60.40;;;;;;5073691;28;20024;-48
2022/08/09 10:39:59;;;;;;;5.45;1.50;;;23.40;60.70;;;;;;5080014;28;20545;-49
2022/08/09 10:42:25;;;;;;;3.17;1.15;;;23.40;63.70;;;;;;5066581;28;20100;-49
2022/08/09 10:45:01;;;;;;;4.57;1.30;;;23.60;61.80;;;;;;5088640;28;20029;-49
2022/08/09 10:47:44;;;;;;;4.30;1.20;;;23.60;60.80;;;;;;5087655;28;20459;-48
2022/08/09 10:50:22;;;;;;;1.88;0.90;;;23.60;61.00;;;;;;5069291;28;20028;-49
2022/08/09 10:53:19;;;;;;;1.27;0.70;;;23.80;60.10;;;;;;5084531;28;20031;-50
2022/08/09 10:55:45;;;;;;;3.42;1.13;;;23.60;61.20;;;;;;5058013;28;20349;-48
2022/08/09 10:58:29;;;;;;;3.05;1.60;;;23.50;59.40;;;;;;5082934;28;20033;-48
2022/08/09 11:00:56;;;;;;;6.03;1.30;;;23.30;58.90;;;;;;5078243;28;20024;-48
2022/08/09 11:03:24;;;;;;;3.80;1.17;;;23.40;62.40;;;;;;5088979;28;20107;-50
2022/08/09 11:06:14;;;;;;;3.80;0.80;;;23.40;60.90;;;;;;5087193;28;20024;-49
2022/08/09 11:08:41;;;;;;;5.93;1.38;;;23.60;61.30;;;;;;5089215;28;20441;-48
2022/08/09 11:11:07;;;;;;;1.85;0.90;;;24.00;59.70;;;;;;5067892;28;20074;-50
2022/08/09 11:13:33;;;;;;;2.50;0.90;;;23.60;58.60;;;;;;5070343;28;20052;-47
2022/08/09 11:16:31;;;;;;;1.88;1.00;;;23.50;60.70;;;;;;5069299;28;20490;-48
2022/08/09 11:19:00;;;;;;;2.50;1.10;;;23.40;58.40;;;;;;5063663;28;20041;-49
2022/08/09 11:21:57;;;;;;;3.00;1.10;;;23.90;59.90;;;;;;5069987;28;20043;-49
2022/08/09 11:24:22;;;;;;;3.40;1.20;;;23.60;59.80;;;;;;5077654;28;20097;-49
2022/08/09 11:26:49;;;;;;;3.47;1.15;;;23.70;59.10;;;;;;5086134;28;20032;-48
2022/08/09 11:29:52;;;;;;;2.47;1.00;;;23.70;58.90;;;;;;5068337;28;20029;-48
2022/08/09 11:32:44;;;;;;;2.83;0.98;;;23.60;59.30;;;;;;5068965;28;20020;-48
2022/08/09 11:35:27;;;;;;;2.38;1.08;;;23.50;63.40;;;;;;5086690;28;20074;-48
2022/08/09 11:38:12;;;;;;;4.30;1.45;;;23.40;61.20;;;;;;5070635;28;20057;-47
2022/08/09 11:40:38;;;;;;;2.50;0.90;;;23.30;60.70;;;;;;5074716;28;20071;-47
2022/08/09 11:43:07;;;;;;;5.43;1.17;;;23.30;60.40;;;;;;5072901;28;20068;-48
2022/08/09 11:45:37;;;;;;;3.55;1.20;;;23.30;61.40;;;;;;5076121;28;20538;-48
2022/08/09 11:48:26;;;;;;;3.80;1.55;;;23.40;58.80;;;;;;5052049;28;20025;-47
2022/08/09 11:50:57;;;;;;;1.77;0.90;;;23.30;61.10;;;;;;5069565;28;20107;-51
2022/08/09 11:53:29;;;;;;;2.92;1.30;;;23.30;61.70;;;;;;5072147;28;20032;-47
2022/08/09 11:55:57;;;;;;;3.58;1.30;;;23.40;60.20;;;;;;5076831;28;20037;-48
2022/08/09 11:58:22;;;;;;;2.63;0.98;;;23.30;59.00;;;;;;5073851;28;20028;-48
2022/08/09 12:00:50;;;;;;;4.97;1.20;;;23.00;59.60;;;;;;5064376;28;20025;-47
2022/08/09 12:03:26;;;;;;;2.03;1.00;;;23.00;60.70;;;;;;5076317;28;20020;-48
2022/08/09 12:05:58;;;;;;;2.53;1.00;;;22.80;63.20;;;;;;5069411;28;20056;-48
2022/08/09 12:08:25;;;;;;;3.45;1.33;;;22.90;60.70;;;;;;5069873;28;20448;-47
2022/08/09 12:11:05;;;;;;;4.10;1.25;;;22.80;61.00;;;;;;5086022;28;20166;-49
2022/08/09 12:13:45;;;;;;;3.63;1.40;;;22.80;60.80;;;;;;5083494;28;20019;-47
2022/08/09 12:16:19;;;;;;;5.50;1.83;;;22.80;60.20;;;;;;5079492;28;20036;-47
2022/08/09 12:18:47;;;;;;;4.95;1.10;;;22.70;63.00;;;;;;5085967;28;20372;-50
2022/08/09 12:21:33;;;;;;;3.75;1.35;;;22.80;61.30;;;;;;5075700;28;20040;-53
2022/08/09 12:24:01;;;;;;;6.95;1.50;;;22.90;61.10;;;;;;5071046;28;20531;-48
2022/08/09 12:26:43;;;;;;;4.55;1.02;;;22.80;61.00;;;;;;5070665;28;20037;-48
2022/08/09 12:29:25;;;;;;;1.58;0.90;;;22.60;59.80;;;;;;5057390;28;20028;-47
2022/08/09 12:32:07;;;;;;;1.65;0.88;;;22.70;61.30;;;;;;5054678;28;20020;-47
2022/08/09 12:34:59;;;;;;;3.97;1.20;;;22.40;57.30;;;;;;5069285;28;20067;-47
2022/08/09 12:37:38;;;;;;;2.10;0.80;;;22.40;58.60;;;;;;5055430;28;20028;-48
2022/08/09 12:40:09;;;;;;;3.10;1.08;;;22.40;61.20;;;;;;5071915;28;20035;-48
2022/08/09 12:42:42;;;;;;;1.90;0.90;;;22.40;60.40;;;;;;5071349;28;20043;-46
2022/08/09 12:45:10;;;;;;;3.00;0.70;;;22.30;60.20;;;;;;5078641;28;20073;-47
2022/08/09 12:47:40;;;;;;;1.10;0.55;;;22.30;60.70;;;;;;5080922;28;20348;-47
2022/08/09 12:50:20;;;;;;;1.02;0.60;;;22.30;61.60;;;;;;5067463;28;20353;-47
2022/08/09 12:52:51;;;;;;;1.65;1.00;;;22.40;61.90;;;;;;5088723;28;20088;-48
2022/08/09 12:55:30;;;;;;;2.03;0.60;;;22.30;62.70;;;;;;5071629;28;20074;-50
2022/08/09 12:57:58;;;;;;;1.83;0.68;;;22.20;63.40;;;;;;5090652;28;20099;-49